SAS27LP EGPH-ESSA
Flight info
| Callsign | SAS27LP |
|---|---|
| Flight time | N/A |
| Altitude | 33000 |
| Route | GRICE P600 ASNUD DCT KLONN DCT MASEV DCT ELTOK |
| Aircraft | MD82/M-SDFGIRWY/S |
Departure
| Time | 2026-05-07 22:12 |
|---|---|
| Airport | Edinburgh Airport (EGPH) |
Arrival
| Time | N/A |
|---|---|
| Airport | Stockholm-Arlanda Airport (ESSA) |
| Time | Latitude | Longitude | Altitude | Speed | Heading |
|---|---|---|---|---|---|
| 2026-05-07 21:39 | 55.94865 | -3.36618 | 108 ft | 0 kts | 145° |
| 2026-05-07 22:03 | 55.94866 | -3.36619 | 108 ft | 2 kts | 145° |
| 2026-05-07 22:04 | 55.94887 | -3.36643 | 106 ft | 4 kts | 155° |
| 2026-05-07 22:04 | 55.94911 | -3.36656 | 106 ft | 4 kts | 179° |
| 2026-05-07 22:04 | 55.94930 | -3.36647 | 107 ft | 4 kts | 229° |
| 2026-05-07 22:04 | 55.94934 | -3.36640 | 104 ft | 0 kts | 238° |
| 2026-05-07 22:06 | 55.94933 | -3.36641 | 104 ft | 1 kts | 238° |
| 2026-05-07 22:06 | 55.94916 | -3.36690 | 106 ft | 8 kts | 238° |
| 2026-05-07 22:07 | 55.94906 | -3.36787 | 108 ft | 8 kts | 287° |
| 2026-05-07 22:07 | 55.94922 | -3.36818 | 107 ft | 1 kts | 334° |
| 2026-05-07 22:07 | 55.94950 | -3.36801 | 108 ft | 7 kts | 36° |
| 2026-05-07 22:07 | 55.94999 | -3.36696 | 108 ft | 15 kts | 51° |
| 2026-05-07 22:08 | 55.95046 | -3.36557 | 107 ft | 12 kts | 64° |
| 2026-05-07 22:08 | 55.95090 | -3.36423 | 106 ft | 13 kts | 58° |
| 2026-05-07 22:08 | 55.95139 | -3.36278 | 107 ft | 17 kts | 59° |
| 2026-05-07 22:08 | 55.95212 | -3.36052 | 107 ft | 21 kts | 58° |
| 2026-05-07 22:09 | 55.95280 | -3.35853 | 108 ft | 19 kts | 58° |
| 2026-05-07 22:09 | 55.95350 | -3.35649 | 106 ft | 19 kts | 59° |
| 2026-05-07 22:09 | 55.95419 | -3.35450 | 108 ft | 13 kts | 50° |
| 2026-05-07 22:09 | 55.95482 | -3.35419 | 108 ft | 5 kts | 341° |
| 2026-05-07 22:10 | 55.95490 | -3.35428 | 108 ft | 0 kts | 324° |
| 2026-05-07 22:10 | 55.95501 | -3.35443 | 107 ft | 7 kts | 324° |
| 2026-05-07 22:10 | 55.95555 | -3.35518 | 108 ft | 8 kts | 306° |
| 2026-05-07 22:11 | 55.95556 | -3.35603 | 108 ft | 5 kts | 248° |
| 2026-05-07 22:11 | 55.95548 | -3.35627 | 108 ft | 0 kts | 233° |
| 2026-05-07 22:11 | 55.95507 | -3.35722 | 108 ft | 31 kts | 232° |
| 2026-05-07 22:12 | 55.95281 | -3.36385 | 107 ft | 95 kts | 240° |
| 2026-05-07 22:12 | 55.94844 | -3.37676 | 114 ft | 149 kts | 238° |
| 2026-05-07 22:12 | 55.94281 | -3.39388 | 554 ft | 166 kts | 235° |
| 2026-05-07 22:12 | 55.93651 | -3.40966 | 1633 ft | 140 kts | 229° |
| 2026-05-07 22:13 | 55.93020 | -3.42363 | 2146 ft | 164 kts | 228° |
| 2026-05-07 22:13 | 55.92258 | -3.44171 | 2503 ft | 188 kts | 236° |
| 2026-05-07 22:13 | 55.91604 | -3.46188 | 3383 ft | 190 kts | 239° |
| 2026-05-07 22:13 | 55.90953 | -3.48274 | 4125 ft | 196 kts | 240° |
| 2026-05-07 22:14 | 55.90295 | -3.50402 | 4942 ft | 197 kts | 243° |
| 2026-05-07 22:14 | 55.89923 | -3.52728 | 5681 ft | 202 kts | 265° |
| 2026-05-07 22:14 | 55.90123 | -3.55262 | 6350 ft | 214 kts | 287° |
| 2026-05-07 22:14 | 55.90891 | -3.57643 | 6954 ft | 227 kts | 307° |
| 2026-05-07 22:15 | 55.92102 | -3.59494 | 7531 ft | 240 kts | 326° |
| 2026-05-07 22:15 | 55.93677 | -3.60655 | 8122 ft | 252 kts | 344° |
| 2026-05-07 22:15 | 55.95449 | -3.60938 | 8741 ft | 261 kts | 2° |
| 2026-05-07 22:15 | 55.97248 | -3.60277 | 9411 ft | 267 kts | 19° |
| 2026-05-07 22:16 | 55.98920 | -3.58773 | 10062 ft | 271 kts | 27° |
| 2026-05-07 22:16 | 56.00667 | -3.57530 | 10515 ft | 278 kts | 9° |
| 2026-05-07 22:16 | 56.02640 | -3.57276 | 10903 ft | 286 kts | 351° |
| 2026-05-07 22:16 | 56.04560 | -3.58100 | 11264 ft | 291 kts | 329° |
| 2026-05-07 22:17 | 56.06283 | -3.60061 | 11708 ft | 296 kts | 321° |
| 2026-05-07 22:17 | 56.08044 | -3.62037 | 12301 ft | 302 kts | 327° |
| 2026-05-07 22:17 | 56.09957 | -3.63684 | 12902 ft | 308 kts | 334° |
| 2026-05-07 22:17 | 56.11974 | -3.65052 | 13471 ft | 312 kts | 337° |
| 2026-05-07 22:18 | 56.14060 | -3.66230 | 14030 ft | 316 kts | 340° |
| 2026-05-07 22:18 | 56.18384 | -3.68082 | 15038 ft | 325 kts | 353° |
| 2026-05-07 22:18 | 56.20651 | -3.67601 | 15513 ft | 335 kts | 18° |
| 2026-05-07 22:19 | 56.22703 | -3.65571 | 15966 ft | 340 kts | 35° |
| 2026-05-07 22:19 | 56.24598 | -3.63029 | 16255 ft | 351 kts | 36° |
| 2026-05-07 22:19 | 56.26570 | -3.60305 | 16371 ft | 364 kts | 37° |
| 2026-05-07 22:19 | 56.28605 | -3.57440 | 16524 ft | 378 kts | 37° |
| 2026-05-07 22:20 | 56.30723 | -3.54492 | 16659 ft | 392 kts | 36° |
| 2026-05-07 22:20 | 56.32892 | -3.51536 | 16832 ft | 405 kts | 36° |
| 2026-05-07 22:20 | 56.35225 | -3.48421 | 17287 ft | 410 kts | 35° |
| 2026-05-07 22:20 | 56.37506 | -3.45428 | 17863 ft | 412 kts | 34° |
| 2026-05-07 22:21 | 56.39840 | -3.42393 | 18385 ft | 415 kts | 34° |
| 2026-05-07 22:21 | 56.42202 | -3.39347 | 18858 ft | 418 kts | 34° |
| 2026-05-07 22:21 | 56.44579 | -3.36292 | 19373 ft | 420 kts | 34° |
| 2026-05-07 22:21 | 56.46985 | -3.33270 | 19855 ft | 422 kts | 33° |
| 2026-05-07 22:22 | 56.49426 | -3.30275 | 20306 ft | 426 kts | 32° |
| 2026-05-07 22:22 | 56.51893 | -3.27272 | 20796 ft | 428 kts | 32° |
| 2026-05-07 22:22 | 56.54367 | -3.24253 | 21300 ft | 430 kts | 32° |
| 2026-05-07 22:22 | 56.56858 | -3.21198 | 21751 ft | 434 kts | 32° |
| 2026-05-07 22:23 | 56.59361 | -3.18109 | 22209 ft | 436 kts | 32° |
| 2026-05-07 22:23 | 56.61877 | -3.14989 | 22689 ft | 439 kts | 33° |
| 2026-05-07 22:23 | 56.64407 | -3.11835 | 23151 ft | 442 kts | 33° |
| 2026-05-07 22:23 | 56.66915 | -3.08702 | 23589 ft | 445 kts | 33° |
| 2026-05-07 22:24 | 56.69349 | -3.05204 | 23936 ft | 450 kts | 46° |
| 2026-05-07 22:24 | 56.71163 | -3.00870 | 24310 ft | 452 kts | 58° |
| 2026-05-07 22:24 | 56.72757 | -2.95931 | 24712 ft | 454 kts | 61° |
| 2026-05-07 22:24 | 56.74299 | -2.90886 | 25058 ft | 457 kts | 62° |
| 2026-05-07 22:25 | 56.75844 | -2.85800 | 25440 ft | 460 kts | 62° |
| 2026-05-07 22:25 | 56.77384 | -2.80770 | 25838 ft | 461 kts | 61° |
| 2026-05-07 22:25 | 56.78976 | -2.75656 | 26181 ft | 465 kts | 60° |
| 2026-05-07 22:25 | 56.80600 | -2.70537 | 26557 ft | 467 kts | 60° |
| 2026-05-07 22:26 | 56.82247 | -2.65406 | 26955 ft | 469 kts | 60° |
| 2026-05-07 22:26 | 56.83909 | -2.60259 | 27303 ft | 472 kts | 60° |
| 2026-05-07 22:26 | 56.85585 | -2.55067 | 27625 ft | 476 kts | 60° |
| 2026-05-07 22:26 | 56.87149 | -2.50210 | 27978 ft | 478 kts | 60° |
| 2026-05-07 22:27 | 56.88889 | -2.44787 | 28367 ft | 480 kts | 60° |
| 2026-05-07 22:27 | 56.90551 | -2.39589 | 28806 ft | 480 kts | 60° |
| 2026-05-07 22:27 | 56.92220 | -2.34322 | 29352 ft | 478 kts | 60° |
| 2026-05-07 22:27 | 56.93869 | -2.29046 | 29875 ft | 476 kts | 61° |
| 2026-05-07 22:28 | 56.95502 | -2.23792 | 30292 ft | 475 kts | 61° |
| 2026-05-07 22:28 | 56.97134 | -2.18535 | 30668 ft | 474 kts | 60° |
| 2026-05-07 22:28 | 56.98764 | -2.13297 | 31090 ft | 472 kts | 60° |
| 2026-05-07 22:28 | 57.00389 | -2.08090 | 31494 ft | 469 kts | 60° |
| 2026-05-07 22:29 | 57.02009 | -2.02908 | 31877 ft | 468 kts | 60° |
| 2026-05-07 22:29 | 57.03606 | -1.97799 | 32222 ft | 467 kts | 60° |
| 2026-05-07 22:29 | 57.05220 | -1.92628 | 32573 ft | 466 kts | 60° |
| 2026-05-07 22:29 | 57.06837 | -1.87443 | 32738 ft | 469 kts | 60° |
| 2026-05-07 22:30 | 57.08463 | -1.82233 | 32795 ft | 470 kts | 60° |
| 2026-05-07 22:30 | 57.11688 | -1.71865 | 32832 ft | 464 kts | 60° |
| 2026-05-07 22:31 | 57.14811 | -1.61632 | 32843 ft | 460 kts | 60° |
| 2026-05-07 22:31 | 57.17920 | -1.51352 | 32849 ft | 459 kts | 60° |
| 2026-05-07 22:32 | 57.21047 | -1.41059 | 32852 ft | 460 kts | 60° |
| 2026-05-07 22:32 | 57.24180 | -1.30753 | 32853 ft | 461 kts | 60° |
| 2026-05-07 22:33 | 57.27295 | -1.20497 | 32852 ft | 461 kts | 60° |
| 2026-05-07 22:33 | 57.30424 | -1.10161 | 32861 ft | 461 kts | 59° |
| 2026-05-07 22:34 | 57.33535 | -0.99803 | 32862 ft | 461 kts | 60° |
| 2026-05-07 22:34 | 57.36605 | -0.89380 | 32866 ft | 461 kts | 60° |
| 2026-05-07 22:35 | 57.39654 | -0.79032 | 32867 ft | 461 kts | 60° |
| 2026-05-07 22:35 | 57.42735 | -0.68607 | 32879 ft | 461 kts | 59° |
| 2026-05-07 22:36 | 57.45818 | -0.58180 | 32879 ft | 461 kts | 59° |
| 2026-05-07 22:36 | 57.48898 | -0.47739 | 32884 ft | 461 kts | 59° |
| 2026-05-07 22:37 | 57.51949 | -0.37360 | 32884 ft | 460 kts | 59° |
| 2026-05-07 22:37 | 57.54977 | -0.26861 | 32890 ft | 461 kts | 60° |
| 2026-05-07 22:38 | 57.57987 | -0.16332 | 32882 ft | 460 kts | 59° |
| 2026-05-07 22:38 | 57.61007 | -0.05804 | 32899 ft | 460 kts | 59° |
| 2026-05-07 22:39 | 57.64033 | 0.04723 | 32896 ft | 460 kts | 59° |
| 2026-05-07 22:39 | 57.67037 | 0.15192 | 32908 ft | 461 kts | 59° |
| 2026-05-07 22:40 | 57.70060 | 0.25751 | 32905 ft | 461 kts | 59° |
| 2026-05-07 22:40 | 57.73065 | 0.36345 | 32912 ft | 461 kts | 59° |
| 2026-05-07 22:41 | 57.76023 | 0.46990 | 32911 ft | 461 kts | 59° |
| 2026-05-07 22:41 | 57.78966 | 0.57577 | 32918 ft | 461 kts | 59° |
| 2026-05-07 22:42 | 57.81938 | 0.68228 | 32920 ft | 461 kts | 59° |
| 2026-05-07 22:42 | 57.84914 | 0.78893 | 32925 ft | 461 kts | 59° |
| 2026-05-07 22:43 | 57.87886 | 0.89569 | 32929 ft | 461 kts | 59° |
| 2026-05-07 22:43 | 57.90836 | 1.00197 | 32931 ft | 462 kts | 59° |
| 2026-05-07 22:44 | 57.93760 | 1.10954 | 32938 ft | 462 kts | 60° |
| 2026-05-07 22:44 | 57.96666 | 1.21749 | 32942 ft | 462 kts | 59° |
| 2026-05-07 22:45 | 57.99582 | 1.32536 | 32941 ft | 462 kts | 59° |
| 2026-05-07 22:45 | 58.02488 | 1.43261 | 32947 ft | 463 kts | 59° |